This is the latest recevied weather packets stored in our database for station/object OM2RC-6. If no packets are shown the sender has not sent any weather packets the latest 10 day(s).
| Time | Temp. | Humidity | Pressure | Rain* | Wind** | Luminosity | Snow |
|---|---|---|---|---|---|---|---|
| 1777545100 | 12.22° C | 39% | 1030.7 hPa | - | - | - | - |
| 1777544799 | 11.67° C | 40% | 1031 hPa | - | - | - | - |
| 1777544498 | 11.67° C | 39% | 1031.1 hPa | - | - | - | - |
| 1777544197 | 11.67° C | 40% | 1030.9 hPa | - | - | - | - |
| 1777543896 | 10.56° C | 39% | 1031.1 hPa | - | - | - | - |
| 1777543595 | 11.11° C | 40% | 1031.1 hPa | - | - | - | - |
| 1777543294 | 10° C | 41% | 1031.3 hPa | - | - | - | - |
| 1777542992 | 11.67° C | 39% | 1031.2 hPa | - | - | - | - |
| 1777542692 | 10° C | 41% | 1031.2 hPa | - | - | - | - |
| 1777542391 | 10.56° C | 43% | 1031.3 hPa | - | - | - | - |
| 1777541789 | 10° C | 40% | 1031.2 hPa | - | - | - | - |
| 1777541488 | 11.11° C | 41% | 1031.3 hPa | - | - | - | - |
| 1777541187 | 11.11° C | 39% | 1031.2 hPa | - | - | - | - |
| 1777540585 | 10.56° C | 39% | 1031.3 hPa | - | - | - | - |
| 1777540284 | 10.56° C | 41% | 1031.3 hPa | - | - | - | - |
| 1777539682 | 10.56° C | 40% | 1031.4 hPa | - | - | - | - |
| 1777539381 | 10° C | 40% | 1031.4 hPa | - | - | - | - |
| 1777538779 | 10° C | 41% | 1031.5 hPa | - | - | - | - |
| 1777538478 | 10° C | 41% | 1031.5 hPa | - | - | - | - |
| 1777538177 | 11.67° C | 38% | 1031.5 hPa | - | - | - | - |
| 1777537876 | 8.33° C | 43% | 1031.6 hPa | - | - | - | - |
| 1777537575 | 8.89° C | 44% | 1031.6 hPa | - | - | - | - |
| 1777537274 | 10° C | 42% | 1031.7 hPa | - | - | - | - |
| 1777536973 | 8.33° C | 43% | 1031.7 hPa | - | - | - | - |
| 1777536672 | 8.33° C | 45% | 1031.7 hPa | - | - | - | - |
* Rain since midnight (hover to see other rain measurements)
** Current wind speed in m/s (hover to see current wind gust speed)